sensor_id;sensor_type;location;lat;lon;timestamp;temperature;humidity
25248;DHT22;13191;47.472;11.214;2023-05-10T00:02:01;13.00;99.90
25248;DHT22;13191;47.472;11.214;2023-05-10T00:04:27;13.00;99.90
25248;DHT22;13191;47.472;11.214;2023-05-10T00:06:53;13.00;99.90
25248;DHT22;13191;47.472;11.214;2023-05-10T00:09:18;12.90;99.90
25248;DHT22;13191;47.472;11.214;2023-05-10T00:11:44;12.90;99.90
25248;DHT22;13191;47.472;11.214;2023-05-10T00:14:10;12.90;99.90
25248;DHT22;13191;47.472;11.214;2023-05-10T00:16:36;12.90;99.90
25248;DHT22;13191;47.472;11.214;2023-05-10T00:19:01;12.90;99.90
25248;DHT22;13191;47.472;11.214;2023-05-10T00:21:27;12.90;99.90
25248;DHT22;13191;47.472;11.214;2023-05-10T00:23:53;12.90;99.90
25248;DHT22;13191;47.472;11.214;2023-05-10T00:26:19;12.90;99.90
25248;DHT22;13191;47.472;11.214;2023-05-10T00:28:45;12.90;99.90
25248;DHT22;13191;47.472;11.214;2023-05-10T00:31:10;12.90;99.90
25248;DHT22;13191;47.472;11.214;2023-05-10T00:33:35;13.00;99.90
25248;DHT22;13191;47.472;11.214;2023-05-10T00:36:01;13.00;99.90
25248;DHT22;13191;47.472;11.214;2023-05-10T00:38:26;12.90;99.90
25248;DHT22;13191;47.472;11.214;2023-05-10T00:40:52;13.00;99.90
25248;DHT22;13191;47.472;11.214;2023-05-10T00:43:17;13.00;99.90
25248;DHT22;13191;47.472;11.214;2023-05-10T00:45:43;13.00;99.90
25248;DHT22;13191;47.472;11.214;2023-05-10T00:48:08;13.00;99.90
25248;DHT22;13191;47.472;11.214;2023-05-10T00:50:34;13.00;99.90
25248;DHT22;13191;47.472;11.214;2023-05-10T00:53:00;12.90;99.90
25248;DHT22;13191;47.472;11.214;2023-05-10T00:55:26;12.90;99.90
25248;DHT22;13191;47.472;11.214;2023-05-10T00:57:52;12.90;99.90
25248;DHT22;13191;47.472;11.214;2023-05-10T01:00:17;13.00;99.90
25248;DHT22;13191;47.472;11.214;2023-05-10T01:02:47;12.90;99.90
25248;DHT22;13191;47.472;11.214;2023-05-10T01:05:13;12.90;99.90
25248;DHT22;13191;47.472;11.214;2023-05-10T01:07:39;12.90;99.90
25248;DHT22;13191;47.472;11.214;2023-05-10T01:10:07;12.90;99.90
25248;DHT22;13191;47.472;11.214;2023-05-10T01:12:37;12.90;99.90
25248;DHT22;13191;47.472;11.214;2023-05-10T01:15:02;12.90;99.90
25248;DHT22;13191;47.472;11.214;2023-05-10T01:17:28;12.90;99.90
25248;DHT22;13191;47.472;11.214;2023-05-10T01:19:54;12.90;99.90
25248;DHT22;13191;47.472;11.214;2023-05-10T01:27:37;12.90;99.90
25248;DHT22;13191;47.472;11.214;2023-05-10T01:32:57;12.70;99.90
25248;DHT22;13191;47.472;11.214;2023-05-10T01:35:37;12.70;99.90
25248;DHT22;13191;47.472;11.214;2023-05-10T01:38:19;12.60;99.90
25248;DHT22;13191;47.472;11.214;2023-05-10T01:40:52;12.70;99.90
25248;DHT22;13191;47.472;11.214;2023-05-10T01:43:26;12.70;99.90
25248;DHT22;13191;47.472;11.214;2023-05-10T01:46:00;12.70;99.90
25248;DHT22;13191;47.472;11.214;2023-05-10T01:48:29;12.70;99.90
25248;DHT22;13191;47.472;11.214;2023-05-10T01:50:55;12.70;99.90
25248;DHT22;13191;47.472;11.214;2023-05-10T01:53:21;12.70;99.90
25248;DHT22;13191;47.472;11.214;2023-05-10T01:55:49;12.60;99.90
25248;DHT22;13191;47.472;11.214;2023-05-10T01:58:18;12.60;99.90
25248;DHT22;13191;47.472;11.214;2023-05-10T02:00:46;12.60;99.90
25248;DHT22;13191;47.472;11.214;2023-05-10T02:03:12;12.70;99.90
25248;DHT22;13191;47.472;11.214;2023-05-10T02:05:39;12.70;99.90
25248;DHT22;13191;47.472;11.214;2023-05-10T02:08:05;12.70;99.90
25248;DHT22;13191;47.472;11.214;2023-05-10T02:10:32;12.60;99.90
25248;DHT22;13191;47.472;11.214;2023-05-10T02:12:58;12.70;99.90
25248;DHT22;13191;47.472;11.214;2023-05-10T02:15:24;12.70;99.90
25248;DHT22;13191;47.472;11.214;2023-05-10T02:17:52;12.70;99.90
25248;DHT22;13191;47.472;11.214;2023-05-10T02:20:19;12.80;99.90
25248;DHT22;13191;47.472;11.214;2023-05-10T02:22:45;12.70;99.90
25248;DHT22;13191;47.472;11.214;2023-05-10T02:25:12;12.70;99.90
25248;DHT22;13191;47.472;11.214;2023-05-10T02:27:38;12.60;99.90
25248;DHT22;13191;47.472;11.214;2023-05-10T02:30:06;12.60;99.90
25248;DHT22;13191;47.472;11.214;2023-05-10T02:32:32;12.60;99.90
25248;DHT22;13191;47.472;11.214;2023-05-10T02:34:59;12.60;99.90
25248;DHT22;13191;47.472;11.214;2023-05-10T02:37:25;12.70;99.90
25248;DHT22;13191;47.472;11.214;2023-05-10T02:39:52;12.60;99.90
25248;DHT22;13191;47.472;11.214;2023-05-10T02:42:19;12.60;99.90
25248;DHT22;13191;47.472;11.214;2023-05-10T02:44:45;12.70;99.90
25248;DHT22;13191;47.472;11.214;2023-05-10T02:47:12;12.60;99.90
25248;DHT22;13191;47.472;11.214;2023-05-10T02:49:38;12.60;99.90
25248;DHT22;13191;47.472;11.214;2023-05-10T02:52:04;12.60;99.90
25248;DHT22;13191;47.472;11.214;2023-05-10T02:54:33;12.60;99.90
25248;DHT22;13191;47.472;11.214;2023-05-10T02:57:01;12.60;99.90
25248;DHT22;13191;47.472;11.214;2023-05-10T02:59:29;12.60;99.90
25248;DHT22;13191;47.472;11.214;2023-05-10T03:01:54;12.50;99.90
25248;DHT22;13191;47.472;11.214;2023-05-10T03:04:20;12.40;99.90
25248;DHT22;13191;47.472;11.214;2023-05-10T03:06:45;12.40;99.90
25248;DHT22;13191;47.472;11.214;2023-05-10T03:09:11;12.40;99.90
25248;DHT22;13191;47.472;11.214;2023-05-10T03:11:47;12.30;99.90
25248;DHT22;13191;47.472;11.214;2023-05-10T03:14:32;12.20;99.90
25248;DHT22;13191;47.472;11.214;2023-05-10T03:17:10;12.20;99.90
25248;DHT22;13191;47.472;11.214;2023-05-10T03:19:43;12.20;99.90
25248;DHT22;13191;47.472;11.214;2023-05-10T03:22:10;12.10;99.90
25248;DHT22;13191;47.472;11.214;2023-05-10T03:24:39;12.10;99.90
25248;DHT22;13191;47.472;11.214;2023-05-10T03:27:06;12.20;99.90
25248;DHT22;13191;47.472;11.214;2023-05-10T03:29:33;12.20;99.90
25248;DHT22;13191;47.472;11.214;2023-05-10T03:31:58;12.20;99.90
25248;DHT22;13191;47.472;11.214;2023-05-10T03:34:25;12.20;99.90
25248;DHT22;13191;47.472;11.214;2023-05-10T03:36:50;12.20;99.90
25248;DHT22;13191;47.472;11.214;2023-05-10T03:39:16;12.20;99.90
25248;DHT22;13191;47.472;11.214;2023-05-10T03:41:41;12.10;99.90
25248;DHT22;13191;47.472;11.214;2023-05-10T03:44:07;12.10;99.90
25248;DHT22;13191;47.472;11.214;2023-05-10T03:46:32;12.10;99.90
25248;DHT22;13191;47.472;11.214;2023-05-10T03:48:58;12.10;99.90
25248;DHT22;13191;47.472;11.214;2023-05-10T03:51:23;12.10;99.90
25248;DHT22;13191;47.472;11.214;2023-05-10T03:53:53;12.10;99.90
25248;DHT22;13191;47.472;11.214;2023-05-10T03:56:19;12.10;99.90
25248;DHT22;13191;47.472;11.214;2023-05-10T03:58:46;12.20;99.90
25248;DHT22;13191;47.472;11.214;2023-05-10T04:01:11;12.20;99.90
25248;DHT22;13191;47.472;11.214;2023-05-10T04:03:36;12.20;99.90
25248;DHT22;13191;47.472;11.214;2023-05-10T04:06:03;12.30;99.90
25248;DHT22;13191;47.472;11.214;2023-05-10T04:08:28;12.20;99.90
25248;DHT22;13191;47.472;11.214;2023-05-10T04:10:54;12.20;99.90
25248;DHT22;13191;47.472;11.214;2023-05-10T04:13:20;12.30;99.90
25248;DHT22;13191;47.472;11.214;2023-05-10T04:15:46;12.20;99.90
25248;DHT22;13191;47.472;11.214;2023-05-10T04:18:12;12.20;99.90
25248;DHT22;13191;47.472;11.214;2023-05-10T04:20:37;12.20;99.90
25248;DHT22;13191;47.472;11.214;2023-05-10T04:23:03;12.20;99.90
25248;DHT22;13191;47.472;11.214;2023-05-10T04:25:28;12.20;99.90
25248;DHT22;13191;47.472;11.214;2023-05-10T04:27:53;12.30;99.90
25248;DHT22;13191;47.472;11.214;2023-05-10T04:30:19;12.20;99.90
25248;DHT22;13191;47.472;11.214;2023-05-10T04:32:44;12.20;99.90
25248;DHT22;13191;47.472;11.214;2023-05-10T04:35:10;12.20;99.90
25248;DHT22;13191;47.472;11.214;2023-05-10T04:37:35;12.20;99.90
25248;DHT22;13191;47.472;11.214;2023-05-10T04:40:02;12.20;99.90
25248;DHT22;13191;47.472;11.214;2023-05-10T04:42:28;12.10;99.90
25248;DHT22;13191;47.472;11.214;2023-05-10T04:44:54;12.10;99.90
25248;DHT22;13191;47.472;11.214;2023-05-10T04:47:19;12.10;99.90
25248;DHT22;13191;47.472;11.214;2023-05-10T04:49:45;12.10;99.90
25248;DHT22;13191;47.472;11.214;2023-05-10T04:52:10;12.20;99.90
25248;DHT22;13191;47.472;11.214;2023-05-10T04:54:36;12.20;99.90
25248;DHT22;13191;47.472;11.214;2023-05-10T04:57:02;12.20;99.90
25248;DHT22;13191;47.472;11.214;2023-05-10T04:59:27;12.20;99.90
25248;DHT22;13191;47.472;11.214;2023-05-10T05:01:53;12.20;99.90
25248;DHT22;13191;47.472;11.214;2023-05-10T05:04:18;12.20;99.90
25248;DHT22;13191;47.472;11.214;2023-05-10T05:06:44;12.20;99.90
25248;DHT22;13191;47.472;11.214;2023-05-10T05:09:09;12.30;99.90
25248;DHT22;13191;47.472;11.214;2023-05-10T05:11:35;12.20;99.90
25248;DHT22;13191;47.472;11.214;2023-05-10T05:14:00;12.20;99.90
25248;DHT22;13191;47.472;11.214;2023-05-10T05:16:26;12.20;99.90
25248;DHT22;13191;47.472;11.214;2023-05-10T05:18:52;12.20;99.90
25248;DHT22;13191;47.472;11.214;2023-05-10T05:21:17;12.20;99.90
25248;DHT22;13191;47.472;11.214;2023-05-10T05:23:43;12.20;99.90
25248;DHT22;13191;47.472;11.214;2023-05-10T05:26:09;12.30;99.90
25248;DHT22;13191;47.472;11.214;2023-05-10T05:28:34;12.30;99.90
25248;DHT22;13191;47.472;11.214;2023-05-10T05:31:06;12.30;99.90
25248;DHT22;13191;47.472;11.214;2023-05-10T05:33:32;12.30;99.90
25248;DHT22;13191;47.472;11.214;2023-05-10T05:36:00;12.40;99.90
25248;DHT22;13191;47.472;11.214;2023-05-10T05:38:25;12.30;99.90
25248;DHT22;13191;47.472;11.214;2023-05-10T05:40:51;12.30;99.90
25248;DHT22;13191;47.472;11.214;2023-05-10T05:43:16;12.30;99.90
25248;DHT22;13191;47.472;11.214;2023-05-10T05:45:42;12.30;99.90
25248;DHT22;13191;47.472;11.214;2023-05-10T05:48:07;12.30;99.90
25248;DHT22;13191;47.472;11.214;2023-05-10T05:50:33;12.30;99.90
25248;DHT22;13191;47.472;11.214;2023-05-10T05:52:58;12.30;99.90
25248;DHT22;13191;47.472;11.214;2023-05-10T05:55:24;12.30;99.90
25248;DHT22;13191;47.472;11.214;2023-05-10T05:57:51;12.40;99.90
25248;DHT22;13191;47.472;11.214;2023-05-10T06:00:16;12.40;99.90
25248;DHT22;13191;47.472;11.214;2023-05-10T06:02:42;12.40;99.90
25248;DHT22;13191;47.472;11.214;2023-05-10T06:05:07;12.40;99.90
25248;DHT22;13191;47.472;11.214;2023-05-10T06:07:33;12.40;99.90
25248;DHT22;13191;47.472;11.214;2023-05-10T06:09:59;12.40;99.90
25248;DHT22;13191;47.472;11.214;2023-05-10T06:12:24;12.30;99.90
25248;DHT22;13191;47.472;11.214;2023-05-10T06:14:50;12.30;99.90
25248;DHT22;13191;47.472;11.214;2023-05-10T06:17:15;12.30;99.90
25248;DHT22;13191;47.472;11.214;2023-05-10T06:19:41;12.30;99.90
25248;DHT22;13191;47.472;11.214;2023-05-10T06:22:06;12.20;99.90
25248;DHT22;13191;47.472;11.214;2023-05-10T06:24:32;12.20;99.90
25248;DHT22;13191;47.472;11.214;2023-05-10T06:26:57;12.10;99.90
25248;DHT22;13191;47.472;11.214;2023-05-10T06:29:25;12.20;99.90
25248;DHT22;13191;47.472;11.214;2023-05-10T06:31:50;12.20;99.90
25248;DHT22;13191;47.472;11.214;2023-05-10T06:34:16;12.20;99.90
25248;DHT22;13191;47.472;11.214;2023-05-10T06:36:41;12.10;99.90
25248;DHT22;13191;47.472;11.214;2023-05-10T06:39:07;11.90;99.90
25248;DHT22;13191;47.472;11.214;2023-05-10T06:41:32;11.90;99.90
25248;DHT22;13191;47.472;11.214;2023-05-10T06:43:58;12.00;99.90
25248;DHT22;13191;47.472;11.214;2023-05-10T06:46:23;12.00;99.90
25248;DHT22;13191;47.472;11.214;2023-05-10T06:48:49;12.10;99.90
25248;DHT22;13191;47.472;11.214;2023-05-10T06:51:15;12.00;99.90
25248;DHT22;13191;47.472;11.214;2023-05-10T06:53:40;12.10;99.90
25248;DHT22;13191;47.472;11.214;2023-05-10T06:56:06;11.90;99.90
25248;DHT22;13191;47.472;11.214;2023-05-10T06:58:31;12.00;99.90
25248;DHT22;13191;47.472;11.214;2023-05-10T07:01:04;12.00;99.90
25248;DHT22;13191;47.472;11.214;2023-05-10T07:03:30;12.00;99.90
25248;DHT22;13191;47.472;11.214;2023-05-10T07:06:00;12.00;99.90
25248;DHT22;13191;47.472;11.214;2023-05-10T07:08:25;11.80;99.90
25248;DHT22;13191;47.472;11.214;2023-05-10T07:10:51;11.70;99.90
25248;DHT22;13191;47.472;11.214;2023-05-10T07:13:16;11.70;99.90
25248;DHT22;13191;47.472;11.214;2023-05-10T07:15:41;11.70;99.90
25248;DHT22;13191;47.472;11.214;2023-05-10T07:18:07;11.70;99.90
25248;DHT22;13191;47.472;11.214;2023-05-10T07:20:33;11.70;99.90
25248;DHT22;13191;47.472;11.214;2023-05-10T07:22:58;11.60;99.90
25248;DHT22;13191;47.472;11.214;2023-05-10T07:25:24;11.60;99.90
25248;DHT22;13191;47.472;11.214;2023-05-10T07:27:50;11.70;99.90
25248;DHT22;13191;47.472;11.214;2023-05-10T07:30:16;11.70;99.90
25248;DHT22;13191;47.472;11.214;2023-05-10T07:32:41;11.60;99.90
25248;DHT22;13191;47.472;11.214;2023-05-10T07:35:07;11.60;99.90
25248;DHT22;13191;47.472;11.214;2023-05-10T07:37:33;11.60;99.90
25248;DHT22;13191;47.472;11.214;2023-05-10T07:39:58;11.60;99.90
25248;DHT22;13191;47.472;11.214;2023-05-10T07:42:24;11.60;99.90
25248;DHT22;13191;47.472;11.214;2023-05-10T07:44:49;11.60;99.90
25248;DHT22;13191;47.472;11.214;2023-05-10T07:47:15;11.60;99.90
25248;DHT22;13191;47.472;11.214;2023-05-10T07:49:40;11.60;99.90
25248;DHT22;13191;47.472;11.214;2023-05-10T07:52:06;11.60;99.90
25248;DHT22;13191;47.472;11.214;2023-05-10T07:54:31;11.70;99.90
25248;DHT22;13191;47.472;11.214;2023-05-10T07:56:57;11.70;99.90
25248;DHT22;13191;47.472;11.214;2023-05-10T07:59:22;11.70;99.90
25248;DHT22;13191;47.472;11.214;2023-05-10T08:01:48;11.70;99.90
25248;DHT22;13191;47.472;11.214;2023-05-10T08:04:13;11.70;99.90
25248;DHT22;13191;47.472;11.214;2023-05-10T08:06:39;11.80;99.90
25248;DHT22;13191;47.472;11.214;2023-05-10T08:09:04;11.80;99.90
25248;DHT22;13191;47.472;11.214;2023-05-10T08:11:30;11.90;99.90
25248;DHT22;13191;47.472;11.214;2023-05-10T08:13:55;12.00;99.90
25248;DHT22;13191;47.472;11.214;2023-05-10T08:16:21;12.00;99.90
25248;DHT22;13191;47.472;11.214;2023-05-10T08:18:46;12.00;99.90
25248;DHT22;13191;47.472;11.214;2023-05-10T08:21:12;12.10;99.90
25248;DHT22;13191;47.472;11.214;2023-05-10T08:23:38;12.10;99.90
25248;DHT22;13191;47.472;11.214;2023-05-10T08:26:03;12.10;99.90
25248;DHT22;13191;47.472;11.214;2023-05-10T08:28:29;12.20;99.90
25248;DHT22;13191;47.472;11.214;2023-05-10T08:30:54;12.20;99.90
25248;DHT22;13191;47.472;11.214;2023-05-10T08:33:20;12.30;99.90
25248;DHT22;13191;47.472;11.214;2023-05-10T08:35:45;12.30;99.90
25248;DHT22;13191;47.472;11.214;2023-05-10T08:38:11;12.30;99.90
25248;DHT22;13191;47.472;11.214;2023-05-10T08:40:37;12.30;99.90
25248;DHT22;13191;47.472;11.214;2023-05-10T08:43:05;12.30;99.90
25248;DHT22;13191;47.472;11.214;2023-05-10T08:45:32;12.40;99.90
25248;DHT22;13191;47.472;11.214;2023-05-10T08:47:57;12.40;99.90
25248;DHT22;13191;47.472;11.214;2023-05-10T08:50:24;12.40;99.90
25248;DHT22;13191;47.472;11.214;2023-05-10T08:52:50;12.40;99.90
25248;DHT22;13191;47.472;11.214;2023-05-10T08:55:18;12.40;99.90
25248;DHT22;13191;47.472;11.214;2023-05-10T08:57:43;12.40;99.90
25248;DHT22;13191;47.472;11.214;2023-05-10T09:00:09;12.50;99.90
25248;DHT22;13191;47.472;11.214;2023-05-10T09:02:36;12.50;99.90
25248;DHT22;13191;47.472;11.214;2023-05-10T09:05:02;12.50;99.90
25248;DHT22;13191;47.472;11.214;2023-05-10T09:07:29;12.50;99.90
25248;DHT22;13191;47.472;11.214;2023-05-10T09:09:55;12.60;99.90
25248;DHT22;13191;47.472;11.214;2023-05-10T09:12:21;12.60;99.90
25248;DHT22;13191;47.472;11.214;2023-05-10T09:14:46;12.60;99.90
25248;DHT22;13191;47.472;11.214;2023-05-10T09:17:12;12.60;99.90
25248;DHT22;13191;47.472;11.214;2023-05-10T09:19:37;12.60;99.90
25248;DHT22;13191;47.472;11.214;2023-05-10T09:22:03;12.70;99.90
25248;DHT22;13191;47.472;11.214;2023-05-10T09:24:29;12.60;99.90
25248;DHT22;13191;47.472;11.214;2023-05-10T09:26:57;12.60;99.90
25248;DHT22;13191;47.472;11.214;2023-05-10T09:29:25;12.70;99.90
25248;DHT22;13191;47.472;11.214;2023-05-10T09:31:51;12.60;99.90
25248;DHT22;13191;47.472;11.214;2023-05-10T09:34:20;12.70;99.90
25248;DHT22;13191;47.472;11.214;2023-05-10T09:36:53;12.70;99.90
25248;DHT22;13191;47.472;11.214;2023-05-10T09:39:18;12.60;99.90
25248;DHT22;13191;47.472;11.214;2023-05-10T09:41:44;12.70;99.90
25248;DHT22;13191;47.472;11.214;2023-05-10T09:44:09;12.70;99.90
25248;DHT22;13191;47.472;11.214;2023-05-10T09:46:35;12.70;99.90
25248;DHT22;13191;47.472;11.214;2023-05-10T09:49:01;12.80;99.90
25248;DHT22;13191;47.472;11.214;2023-05-10T09:51:26;12.80;99.90
25248;DHT22;13191;47.472;11.214;2023-05-10T09:56:36;12.70;99.90
25248;DHT22;13191;47.472;11.214;2023-05-10T09:59:04;12.80;99.90
25248;DHT22;13191;47.472;11.214;2023-05-10T10:01:30;12.80;99.90
25248;DHT22;13191;47.472;11.214;2023-05-10T10:03:56;12.80;99.90
25248;DHT22;13191;47.472;11.214;2023-05-10T10:06:23;12.90;99.90
25248;DHT22;13191;47.472;11.214;2023-05-10T10:08:48;12.80;99.90
25248;DHT22;13191;47.472;11.214;2023-05-10T10:11:14;12.80;99.90
25248;DHT22;13191;47.472;11.214;2023-05-10T10:13:39;12.90;99.90
25248;DHT22;13191;47.472;11.214;2023-05-10T10:16:05;12.90;99.90
25248;DHT22;13191;47.472;11.214;2023-05-10T10:18:31;12.90;99.90
25248;DHT22;13191;47.472;11.214;2023-05-10T10:20:56;13.00;99.90
25248;DHT22;13191;47.472;11.214;2023-05-10T10:23:23;12.90;99.90
25248;DHT22;13191;47.472;11.214;2023-05-10T10:25:48;12.90;99.90
25248;DHT22;13191;47.472;11.214;2023-05-10T10:28:16;13.00;99.90
25248;DHT22;13191;47.472;11.214;2023-05-10T10:30:47;13.10;99.90
25248;DHT22;13191;47.472;11.214;2023-05-10T10:35:58;13.10;99.90
25248;DHT22;13191;47.472;11.214;2023-05-10T10:38:24;13.20;99.90
25248;DHT22;13191;47.472;11.214;2023-05-10T10:41:03;13.20;99.90
25248;DHT22;13191;47.472;11.214;2023-05-10T10:43:33;13.10;99.90
25248;DHT22;13191;47.472;11.214;2023-05-10T10:46:14;13.10;99.90
25248;DHT22;13191;47.472;11.214;2023-05-10T10:48:49;13.10;99.90
25248;DHT22;13191;47.472;11.214;2023-05-10T10:51:14;13.20;99.90
25248;DHT22;13191;47.472;11.214;2023-05-10T10:53:40;13.20;99.90
25248;DHT22;13191;47.472;11.214;2023-05-10T10:56:07;13.20;99.90
25248;DHT22;13191;47.472;11.214;2023-05-10T10:58:33;13.20;99.90
25248;DHT22;13191;47.472;11.214;2023-05-10T11:01:14;13.20;99.90
25248;DHT22;13191;47.472;11.214;2023-05-10T11:03:41;13.20;99.90
25248;DHT22;13191;47.472;11.214;2023-05-10T11:06:06;13.20;99.90
25248;DHT22;13191;47.472;11.214;2023-05-10T11:08:34;13.20;99.90
25248;DHT22;13191;47.472;11.214;2023-05-10T11:11:03;13.20;99.90
25248;DHT22;13191;47.472;11.214;2023-05-10T11:13:45;13.20;99.90
25248;DHT22;13191;47.472;11.214;2023-05-10T11:16:12;13.20;99.90
25248;DHT22;13191;47.472;11.214;2023-05-10T11:18:38;13.10;99.90
25248;DHT22;13191;47.472;11.214;2023-05-10T11:21:03;13.00;99.90
25248;DHT22;13191;47.472;11.214;2023-05-10T11:23:52;12.90;99.90
25248;DHT22;13191;47.472;11.214;2023-05-10T11:26:16;13.00;99.90
25248;DHT22;13191;47.472;11.214;2023-05-10T11:28:45;12.80;99.90
25248;DHT22;13191;47.472;11.214;2023-05-10T11:31:13;12.80;99.90
25248;DHT22;13191;47.472;11.214;2023-05-10T11:33:45;12.70;99.90
25248;DHT22;13191;47.472;11.214;2023-05-10T11:36:11;12.70;99.90
25248;DHT22;13191;47.472;11.214;2023-05-10T11:38:37;12.70;99.90
25248;DHT22;13191;47.472;11.214;2023-05-10T11:41:02;12.80;99.90
25248;DHT22;13191;47.472;11.214;2023-05-10T11:43:28;12.80;99.90
25248;DHT22;13191;47.472;11.214;2023-05-10T11:45:55;12.80;99.90
25248;DHT22;13191;47.472;11.214;2023-05-10T11:48:21;12.70;99.90
25248;DHT22;13191;47.472;11.214;2023-05-10T11:50:49;12.60;99.90
25248;DHT22;13191;47.472;11.214;2023-05-10T11:53:14;12.70;99.90
25248;DHT22;13191;47.472;11.214;2023-05-10T11:55:40;12.70;99.90
25248;DHT22;13191;47.472;11.214;2023-05-10T11:58:05;12.80;99.90
25248;DHT22;13191;47.472;11.214;2023-05-10T12:00:31;12.80;99.90
25248;DHT22;13191;47.472;11.214;2023-05-10T12:02:59;12.80;99.90
25248;DHT22;13191;47.472;11.214;2023-05-10T12:05:27;12.80;99.90
25248;DHT22;13191;47.472;11.214;2023-05-10T12:07:52;12.80;99.90
25248;DHT22;13191;47.472;11.214;2023-05-10T12:10:18;12.80;99.90
25248;DHT22;13191;47.472;11.214;2023-05-10T12:12:51;12.90;99.90
25248;DHT22;13191;47.472;11.214;2023-05-10T12:15:18;12.90;99.90
25248;DHT22;13191;47.472;11.214;2023-05-10T12:17:45;12.90;99.90
25248;DHT22;13191;47.472;11.214;2023-05-10T12:20:17;12.90;99.90
25248;DHT22;13191;47.472;11.214;2023-05-10T12:22:56;12.80;99.90
25248;DHT22;13191;47.472;11.214;2023-05-10T12:25:23;12.90;99.90
25248;DHT22;13191;47.472;11.214;2023-05-10T12:27:49;12.90;99.90
25248;DHT22;13191;47.472;11.214;2023-05-10T12:30:19;12.90;99.90
25248;DHT22;13191;47.472;11.214;2023-05-10T12:32:44;12.90;99.90
25248;DHT22;13191;47.472;11.214;2023-05-10T12:35:10;13.00;99.90
25248;DHT22;13191;47.472;11.214;2023-05-10T12:37:37;13.00;99.90
25248;DHT22;13191;47.472;11.214;2023-05-10T12:40:08;13.00;99.90
25248;DHT22;13191;47.472;11.214;2023-05-10T12:42:34;12.90;99.90
25248;DHT22;13191;47.472;11.214;2023-05-10T12:45:01;12.90;99.90
25248;DHT22;13191;47.472;11.214;2023-05-10T12:47:27;12.90;99.90
25248;DHT22;13191;47.472;11.214;2023-05-10T12:49:52;13.00;99.90
25248;DHT22;13191;47.472;11.214;2023-05-10T12:52:17;12.90;99.90
25248;DHT22;13191;47.472;11.214;2023-05-10T12:54:43;12.90;99.90
25248;DHT22;13191;47.472;11.214;2023-05-10T12:57:08;12.90;99.90
25248;DHT22;13191;47.472;11.214;2023-05-10T12:59:34;12.90;99.90
25248;DHT22;13191;47.472;11.214;2023-05-10T13:02:00;12.90;99.90
25248;DHT22;13191;47.472;11.214;2023-05-10T13:04:27;12.90;99.90
25248;DHT22;13191;47.472;11.214;2023-05-10T13:06:52;12.80;99.90
25248;DHT22;13191;47.472;11.214;2023-05-10T13:09:18;12.80;99.90
25248;DHT22;13191;47.472;11.214;2023-05-10T13:11:44;12.70;99.90
25248;DHT22;13191;47.472;11.214;2023-05-10T13:14:10;12.70;99.90
25248;DHT22;13191;47.472;11.214;2023-05-10T13:16:36;12.80;99.90
25248;DHT22;13191;47.472;11.214;2023-05-10T13:19:01;12.70;99.90
25248;DHT22;13191;47.472;11.214;2023-05-10T13:21:27;12.70;99.90
25248;DHT22;13191;47.472;11.214;2023-05-10T13:23:53;12.70;99.90
25248;DHT22;13191;47.472;11.214;2023-05-10T13:26:18;12.70;99.90
25248;DHT22;13191;47.472;11.214;2023-05-10T13:28:44;12.60;99.90
25248;DHT22;13191;47.472;11.214;2023-05-10T13:31:11;12.60;99.90
25248;DHT22;13191;47.472;11.214;2023-05-10T13:33:36;12.60;99.90
25248;DHT22;13191;47.472;11.214;2023-05-10T13:36:02;12.60;99.90
25248;DHT22;13191;47.472;11.214;2023-05-10T13:38:27;12.50;99.90
25248;DHT22;13191;47.472;11.214;2023-05-10T13:40:53;12.60;99.90
25248;DHT22;13191;47.472;11.214;2023-05-10T13:43:18;12.60;99.90
25248;DHT22;13191;47.472;11.214;2023-05-10T13:45:44;12.60;99.90
25248;DHT22;13191;47.472;11.214;2023-05-10T13:48:09;12.70;99.90
25248;DHT22;13191;47.472;11.214;2023-05-10T13:50:35;12.70;99.90
25248;DHT22;13191;47.472;11.214;2023-05-10T13:53:00;12.60;99.90
25248;DHT22;13191;47.472;11.214;2023-05-10T13:55:26;12.70;99.90
25248;DHT22;13191;47.472;11.214;2023-05-10T13:57:51;12.70;99.90
25248;DHT22;13191;47.472;11.214;2023-05-10T14:00:17;12.70;99.90
25248;DHT22;13191;47.472;11.214;2023-05-10T14:02:42;12.60;99.90
25248;DHT22;13191;47.472;11.214;2023-05-10T14:05:08;12.60;99.90
25248;DHT22;13191;47.472;11.214;2023-05-10T14:07:34;12.70;99.90
25248;DHT22;13191;47.472;11.214;2023-05-10T14:09:59;12.60;99.90
25248;DHT22;13191;47.472;11.214;2023-05-10T14:12:25;12.60;99.90
25248;DHT22;13191;47.472;11.214;2023-05-10T14:14:50;12.50;99.90
25248;DHT22;13191;47.472;11.214;2023-05-10T14:17:17;12.50;99.90
25248;DHT22;13191;47.472;11.214;2023-05-10T14:19:43;12.40;99.90
25248;DHT22;13191;47.472;11.214;2023-05-10T14:22:08;12.30;99.90
25248;DHT22;13191;47.472;11.214;2023-05-10T14:24:34;12.20;99.90
25248;DHT22;13191;47.472;11.214;2023-05-10T14:26:59;12.20;99.90
25248;DHT22;13191;47.472;11.214;2023-05-10T14:29:25;12.20;99.90
25248;DHT22;13191;47.472;11.214;2023-05-10T14:31:51;12.20;99.90
25248;DHT22;13191;47.472;11.214;2023-05-10T14:34:16;12.10;99.90
25248;DHT22;13191;47.472;11.214;2023-05-10T14:36:42;12.20;99.90
25248;DHT22;13191;47.472;11.214;2023-05-10T14:39:08;12.10;99.90
25248;DHT22;13191;47.472;11.214;2023-05-10T14:41:35;12.10;99.90
25248;DHT22;13191;47.472;11.214;2023-05-10T14:44:00;12.10;99.90
25248;DHT22;13191;47.472;11.214;2023-05-10T14:46:28;12.00;99.90
25248;DHT22;13191;47.472;11.214;2023-05-10T14:48:55;12.00;99.90
25248;DHT22;13191;47.472;11.214;2023-05-10T14:51:20;11.90;99.90
25248;DHT22;13191;47.472;11.214;2023-05-10T14:53:48;11.90;99.90
25248;DHT22;13191;47.472;11.214;2023-05-10T14:56:14;11.80;99.90
25248;DHT22;13191;47.472;11.214;2023-05-10T14:58:40;11.70;99.90
25248;DHT22;13191;47.472;11.214;2023-05-10T15:01:05;11.70;99.90
25248;DHT22;13191;47.472;11.214;2023-05-10T15:03:31;11.70;99.90
25248;DHT22;13191;47.472;11.214;2023-05-10T15:05:56;11.70;99.90
25248;DHT22;13191;47.472;11.214;2023-05-10T15:08:23;11.70;99.90
25248;DHT22;13191;47.472;11.214;2023-05-10T15:10:49;11.70;99.90
25248;DHT22;13191;47.472;11.214;2023-05-10T15:13:15;11.70;99.90
25248;DHT22;13191;47.472;11.214;2023-05-10T15:15:40;11.80;99.90
25248;DHT22;13191;47.472;11.214;2023-05-10T15:18:06;11.90;99.90
25248;DHT22;13191;47.472;11.214;2023-05-10T15:20:31;11.90;99.90
25248;DHT22;13191;47.472;11.214;2023-05-10T15:22:57;11.90;99.90
25248;DHT22;13191;47.472;11.214;2023-05-10T15:25:22;11.90;99.90